Farson, WY (82932)

8:42 PM MST on February 11, 2016 (GMT -0700)
north of town | | Change Station
CLOSE
Current Station
Personal Weather Station
Location: Farson, WY
Elevation: 6637 ft
Nearby Weather Stations

Elev 6637 ft 42.12 °N, 109.46 °W | Updated 20 minutes ago

Clear
Clear
22.5 °F
Feels Like 22 °F
N
0.0
Wind Variable Wind from North
Gusts 0.0 mph

Today
High -- | Low -- °F
--% Chance of Precip.
Yesterday
High -- | Low -- °F
Precip. -- in
Pressure 30.40 in
Visibility 10.0 miles
Clouds Clear
Windchill 22 °F
Dew Point 19 °F
Humidity 87%
Rainfall 0.00 in
Snow Depth Not available.
7:19 AM 5:44 PM
Waxing Crescent, 17% visible
METAR KRKS 120254Z AUTO 23009KT 10SM CLR 03/M06 A3036 RMK AO2 SLP295 T00281061 50005
Pressure 30.40 in
Visibility 10.0 miles
Clouds Clear
Windchill 22 °F
Dew Point 19 °F
Humidity 87%
Rainfall 0.00 in
Snow Depth Not available.
7:19 AM 5:44 PM
Waxing Crescent, 17% visible
METAR KRKS 120254Z AUTO 23009KT 10SM CLR 03/M06 A3036 RMK AO2 SLP295 T00281061 50005

10-Day Weather Forecast

Almanac

Astronomy

Feb. 11, 2016 Rise Set
Actual Time
Civil Twilight
Nautical Twilight
Astronomical Twilight
Moon
Length of Visible Light
Length of Day
Tomorrow will be .
, % of the Moon is Illuminated

Today's Extremes

State Highs State Lows

Community

WunderPhotos

Upload Photos

1,892,254 photos uploaded!

WunderBlog® & News

Nearby

Air Quality

  Air Quality AQ Index Pollutant
Not available.

Snow Depth

Station Depth Elevation

Earthquake Activity

City Distance Mag. Time & Date
Minimum magnitude displayed is 2.5.

Coastal Water Temperatures

Place Temperature

Stations

Nearby Weather Stations

Station Location Temp. Windchill Dew Point Humidity Wind Precip. Elev Updated Type
                   

Watches & Warnings

There are currently no watches in effect.